Reynolds, ND

12:26 PM CST on March 01, 2017 (GMT -0600)
Climax | | Change Station

Elev 853 ft 47.61 °N, 96.81 °W | Updated 9 minutes ago

Mostly Cloudy
Mostly Cloudy
19.4 °F
Feels Like 6 °F
N
14.0
Wind Variable Wind from NW
Gusts 21.0 mph

Today
High -- | Low -- °F
--% Chance of Precip.
Yesterday
High -- | Low -- °F
Precip. -- in
Pressure 30.12 in
Visibility 10.0 miles
Clouds Mostly Cloudy 1500 ft
Windchill 6 °F
Dew Point 14 °F
Humidity 83%
Rainfall 0.00 in
Snow Depth Not available.
7:08 AM 6:13 PM
Waxing Crescent, 12% visible
METAR KGFK 011753Z 34013KT 10SM BKN015 M07/M13 A3007 RMK AO2 SLP200 4/001 931001 60001 T10671128 11067 21111 51013
Pressure 30.12 in
Visibility 10.0 miles
Clouds Mostly Cloudy 1500 ft
Windchill 6 °F
Dew Point 14 °F
Humidity 83%
Rainfall 0.00 in
Snow Depth Not available.
7:08 AM 6:13 PM
Waxing Crescent, 12% visible
METAR KGFK 011753Z 34013KT 10SM BKN015 M07/M13 A3007 RMK AO2 SLP200 4/001 931001 60001 T10671128 11067 21111 51013

Get Your Daily Forecast Email!

Thanks for signing up!

Be on the lookout for a verification email in your inbox.

You'll start receiving the daily forecast at 8 AM.

×

10-Day Weather Forecast

Almanac

Astronomy

Mar. 01, 2017 Rise Set
Actual Time
Civil Twilight
Nautical Twilight
Astronomical Twilight
Moon
Length of Visible Light
Length of Day
Tomorrow will be .
, % of the Moon is Illuminated

Today's Extremes

State Highs State Lows

Community

WunderPhotos

Upload Photos

1,962,540 photos uploaded!

WunderBlog® & News

Nearby

Air Quality

  Air Quality AQ Index Pollutant
Not available.

Snow Depth

Station Depth Elevation

Earthquake Activity

City Distance Mag. Time & Date
Minimum magnitude displayed is 2.5.

Coastal Water Temperatures

Place Temperature

Stations

Nearby Weather Stations

Station Location Temp. Windchill Dew Point Humidity Wind Precip. Elev Updated Type
                   

Watches & Warnings

There are currently no watches in effect.